Latest Weather Observations for Lord Howe Island Windy Point

IDN60801

Issued at 11:03 am EST Wednesday 25 May 2016 (issued every 30 minutes, with the page automatically refreshed every 10 minutes)

About weather observations | Map of weather stations | Latest weather observations for NSW | Other Formats
Station Details ID: 200715 Name: LORD HOWE ISLAND WINDY POINT Lat: -31.54 Lon: 159.07 Height: 4.0 m
Data from the previous 72 hours. | See also: Recent months for locations in New South Wales
Date/Time
EST
Temp
°C
App
Temp
°C
Dew
Point
Rel
Hum
%
Delta-T
°C
Wind Press
QNH
hPa
Press
MSL
hPa
Rain
since 9 am
mm
Dir
 
Spd
km/h
Gust
km/h
Spd
kts
Gust
kts
25/11:00am - - - - - SW 43 54 23 29 - - -
25/10:30am - - - - - SW 44 56 24 30 - - -
25/10:00am - - - - - SW 46 57 25 31 - - -
25/09:30am - - - - - SW 48 59 26 32 - - -
25/09:00am - - - - - SW 50 61 27 33 - - -
25/08:30am - - - - - SW 50 61 27 33 - - -
25/08:00am - - - - - SW 52 63 28 34 - - -
25/07:30am - - - - - SW 48 57 26 31 - - -
25/07:00am - - - - - SW 50 61 27 33 - - -
25/06:30am - - - - - SW 52 61 28 33 - - -
25/06:00am - - - - - SW 46 57 25 31 - - -
25/05:30am - - - - - SW 54 63 29 34 - - -
25/05:00am - - - - - SW 50 65 27 35 - - -
25/04:30am - - - - - SW 54 65 29 35 - - -
25/04:00am - - - - - SW 65 78 35 42 - - -
25/03:45am - - - - - SW 52 70 28 38 - - -
25/03:30am - - - - - SW 48 63 26 34 - - -
25/03:00am - - - - - SW 54 67 29 36 - - -
25/02:30am - - - - - SW 54 65 29 35 - - -
25/02:00am - - - - - SW 50 63 27 34 - - -
25/01:30am - - - - - SW 50 61 27 33 - - -
25/01:19am - - - - - WSW 41 61 22 33 - - -
25/01:00am - - - - - SW 50 63 27 34 - - -
25/12:31am - - - - - WSW 48 67 26 36 - - -
25/12:30am - - - - - WSW 50 67 27 36 - - -
25/12:00am - - - - - SW 46 57 25 31 - - -
 
Date/Time
EST
Temp
°C
App
Temp
°C
Dew
Point
Rel
Hum
%
Delta-T
°C
Wind Press
QNH
hPa
Press
MSL
hPa
Rain
since 9 am
mm
Dir
 
Spd
km/h
Gust
km/h
Spd
kts
Gust
kts
24/11:30pm - - - - - WSW 52 63 28 34 - - -
24/11:00pm - - - - - W 48 56 26 30 - - -
24/10:47pm - - - - - WSW 52 70 28 38 - - -
24/10:30pm - - - - - W 52 65 28 35 - - -
24/10:00pm - - - - - W 48 59 26 32 - - -
24/09:30pm - - - - - W 39 46 21 25 - - -
24/09:00pm - - - - - W 37 44 20 24 - - -
24/08:30pm - - - - - W 44 57 24 31 - - -
24/08:27pm - - - - - W 39 57 21 31 - - -
24/08:00pm - - - - - WSW 39 52 21 28 - - -
24/07:30pm - - - - - W 33 39 18 21 - - -
24/07:00pm - - - - - WSW 35 43 19 23 - - -
24/06:30pm - - - - - WSW 32 39 17 21 - - -
24/06:00pm - - - - - WSW 35 43 19 23 - - -
24/05:30pm - - - - - WSW 37 46 20 25 - - -
24/05:00pm - - - - - SW 35 46 19 25 - - -
24/04:30pm - - - - - SW 35 44 19 24 - - -
24/04:00pm - - - - - SW 33 46 18 25 - - -
24/03:30pm - - - - - SW 35 44 19 24 - - -
24/03:00pm - - - - - SW 37 44 20 24 - - -
24/02:30pm - - - - - SW 39 50 21 27 - - -
24/02:00pm - - - - - SW 41 52 22 28 - - -
24/01:30pm - - - - - SW 43 50 23 27 - - -
24/01:00pm - - - - - SW 43 54 23 29 - - -
24/12:30pm - - - - - SW 43 50 23 27 - - -
24/12:00pm - - - - - SW 39 50 21 27 - - -
24/11:30am - - - - - SW 39 46 21 25 - - -
24/11:00am - - - - - SW 35 43 19 23 - - -
24/10:30am - - - - - SW 37 44 20 24 - - -
24/10:00am - - - - - SW 30 35 16 19 - - -
24/09:30am - - - - - SW 52 63 28 34 - - -
24/09:21am - - - - - WSW 41 63 22 34 - - -
24/09:00am - - - - - SW 35 43 19 23 - - -
24/08:30am - - - - - SW 37 44 20 24 - - -
24/08:00am - - - - - SW 39 46 21 25 - - -
24/07:30am - - - - - SW 39 46 21 25 - - -
24/07:00am - - - - - SW 41 50 22 27 - - -
24/06:30am - - - - - SSW 43 52 23 28 - - -
24/06:00am - - - - - SW 44 54 24 29 - - -
24/05:30am - - - - - SW 46 54 25 29 - - -
24/05:00am - - - - - SW 44 57 24 31 - - -
24/04:30am - - - - - SW 48 57 26 31 - - -
24/04:00am - - - - - SW 43 54 23 29 - - -
24/03:30am - - - - - SW 44 52 24 28 - - -
24/03:02am - - - - - SW 41 59 22 32 - - -
24/03:00am - - - - - SW 39 46 21 25 - - -
24/02:30am - - - - - WSW 37 43 20 23 - - -
24/02:00am - - - - - SW 52 63 28 34 - - -
24/01:30am - - - - - SW 56 69 30 37 - - -
24/01:18am - - - - - W 48 59 26 32 - - -
24/01:00am - - - - - WNW 43 56 23 30 - - -
24/12:30am - - - - - NW 37 54 20 29 - - -
24/12:00am - - - - - NW 39 52 21 28 - - -
 
Date/Time
EST
Temp
°C
App
Temp
°C
Dew
Point
Rel
Hum
%
Delta-T
°C
Wind Press
QNH
hPa
Press
MSL
hPa
Rain
since 9 am
mm
Dir
 
Spd
km/h
Gust
km/h
Spd
kts
Gust
kts
23/11:30pm - - - - - NW 33 44 18 24 - - -
23/11:00pm - - - - - NW 33 48 18 26 - - -
23/10:30pm - - - - - WNW 35 50 19 27 - - -
23/10:08pm - - - - - NW 32 50 17 27 - - -
23/10:00pm - - - - - WNW 32 44 17 24 - - -
23/09:30pm - - - - - WNW 33 44 18 24 - - -
23/09:00pm - - - - - WNW 33 43 18 23 - - -
23/08:30pm - - - - - WNW 32 39 17 21 - - -
23/08:00pm - - - - - WNW 30 39 16 21 - - -
23/07:30pm - - - - - WNW 28 35 15 19 - - -
23/07:00pm - - - - - W 33 41 18 22 - - -
23/06:30pm - - - - - W 32 37 17 20 - - -
23/06:00pm - - - - - NW 24 32 13 17 - - -
23/05:30pm - - - - - WNW 28 35 15 19 - - -
23/05:00pm - - - - - NW 24 32 13 17 - - -
23/04:30pm - - - - - NW 24 32 13 17 - - -
23/04:00pm - - - - - WNW 24 32 13 17 - - -
23/03:30pm - - - - - WNW 26 33 14 18 - - -
23/03:00pm - - - - - W 26 30 14 16 - - -
23/02:30pm - - - - - W 28 32 15 17 - - -
23/02:00pm - - - - - W 22 28 12 15 - - -
23/01:30pm - - - - - W 22 28 12 15 - - -
23/01:00pm - - - - - W 22 28 12 15 - - -
23/12:30pm - - - - - W 20 24 11 13 - - -
23/12:00pm - - - - - W 20 26 11 14 - - -
23/11:30am - - - - - WSW 24 30 13 16 - - -
23/11:00am - - - - - WSW 26 30 14 16 - - -
23/10:30am - - - - - W 26 37 14 20 - - -
23/10:00am - - - - - WSW 24 30 13 16 - - -
23/09:30am - - - - - WSW 24 32 13 17 - - -
23/09:00am - - - - - WSW 24 32 13 17 - - -
23/08:30am - - - - - WSW 20 26 11 14 - - -
23/08:00am - - - - - WSW 24 30 13 16 - - -
23/07:30am - - - - - WSW 20 26 11 14 - - -
23/07:00am - - - - - WSW 20 26 11 14 - - -
23/06:30am - - - - - WSW 19 24 10 13 - - -
23/06:00am - - - - - WSW 20 24 11 13 - - -
23/05:30am - - - - - SW 17 22 9 12 - - -
23/05:00am - - - - - SW 20 26 11 14 - - -
23/04:30am - - - - - SSW 13 24 7 13 - - -
23/04:00am - - - - - SSE 4 11 2 6 - - -
23/03:30am - - - - - E 6 7 3 4 - - -
23/03:00am - - - - - E 2 6 1 3 - - -
23/02:30am - - - - - CALM 0 6 0 3 - - -
23/02:00am - - - - - CALM 0 6 0 3 - - -
23/01:30am - - - - - E 7 9 4 5 - - -
23/01:00am - - - - - CALM 0 2 0 1 - - -
23/12:30am - - - - - E 6 7 3 4 - - -
23/12:00am - - - - - E 6 7 3 4 - - -
 
Date/Time
EST
Temp
°C
App
Temp
°C
Dew
Point
Rel
Hum
%
Delta-T
°C
Wind Press
QNH
hPa
Press
MSL
hPa
Rain
since 9 am
mm
Dir
 
Spd
km/h
Gust
km/h
Spd
kts
Gust
kts
22/11:30pm - - - - - ESE 7 11 4 6 - - -
22/11:00pm - - - - - E 7 11 4 6 - - -
22/10:30pm - - - - - SE 15 24 8 13 - - -
22/10:00pm - - - - - ESE 9 15 5 8 - - -
22/09:30pm - - - - - SSE 17 32 9 17 - - -
22/09:00pm - - - - - SE 19 35 10 19 - - -
22/08:30pm - - - - - SSE 17 28 9 15 - - -
22/08:00pm - - - - - SSE 17 30 9 16 - - -
22/07:30pm - - - - - S 22 33 12 18 - - -
22/07:00pm - - - - - S 20 30 11 16 - - -
22/06:30pm - - - - - S 20 35 11 19 - - -
22/06:00pm - - - - - SSE 20 26 11 14 - - -
22/05:30pm - - - - - SSE 19 32 10 17 - - -
22/05:00pm - - - - - SSE 19 28 10 15 - - -
22/04:30pm - - - - - S 13 28 7 15 - - -
22/04:00pm - - - - - S 17 32 9 17 - - -
22/03:30pm - - - - - SSE 20 28 11 15 - - -
22/03:00pm - - - - - SSE 19 33 10 18 - - -
22/02:30pm - - - - - S 20 28 11 15 - - -
22/02:00pm - - - - - S 19 28 10 15 - - -
22/01:30pm - - - - - S 17 30 9 16 - - -
22/01:00pm - - - - - S 15 22 8 12 - - -
22/12:30pm - - - - - SSE 15 28 8 15 - - -
22/12:00pm - - - - - SSW 13 32 7 17 - - -
22/11:30am - - - - - ESE 11 17 6 9 - - -

Other Formats:

Comma delimited format used in spreadsheet applications
http://www.bom.gov.au/fwo/IDN60801/IDN60801.95995.axf

JavaScript Object Notation format (JSON) in row-major order
http://www.bom.gov.au/fwo/IDN60801/IDN60801.95995.json